Terre Haute International Hulman Field
KHUF : now visible

Airfield :











YOU CAN JOIN US ON...

 
LOGIN :

Register | Disclaimer

   EN    FR    IT 

 









Legend :    VFR   Marginal VFR   IFR   Intensive IFR   Very Intensive IFR
Visi :
Ceiling :
>= 8 km
>= 3000ft
5 to 8 km
1000 to 3000 ft
1500m to 5 km
500 to 1000 ft
800 to 1500m
200 to 500 ft
< 800m
< 200 ft
Symbols :   Thunderstorms  Fog  Heavy snow  Heavy precipitations  Wind > 20 kt






- Airport Elevation : 589 ft
- IATA code : HUF


KHUF - Terre Haute International Hulman Field

CURRENT METAR :
  • 220653Z 34009KT 10SM OVC017 06/03 A3004 RMK AO2 RAE31 SLP175 P0001 T00560028

EXPIRED METARs :
  • 220553Z 30006KT 10SM -RA BKN022 OVC048 06/04 A3004 RMK AO2 RAB0456E25B50 PRESRR SLP174 P0001 60004 T00610039 10122 20061 51008
  • 220538Z 32007KT 10SM SCT020 BKN038 OVC047 06/04 A3002 RMK AO2 RAB0456E25 P0001 T00610039
  • 220526Z 33006KT 10SM BKN019 OVC038 06/04 A3001 RMK AO2 RAB0456E25 P0001 T00610044
  • 220513Z 31007KT 8SM -RA SCT017 OVC038 06/04 A3003 RMK AO2 RAB0456 P0001 T00610044
  • 220453Z 31008KT 10SM OVC016 07/04 A3002 RMK AO2 RAB05E15 SLP169 P0001 T00670039 401220056
  • 220426Z 31007G20KT 10SM OVC014 07/04 A3002 RMK AO2 RAB05E15 P0001 T00670039

TAF KHUF
Valid from the 22 at 06:00 until the 23 at 06:00 UTC


220520Z 2206/2306 32006KT P6SM VCSH OVC012
FM220700 32006KT P6SM OVC015
FM220900 35006KT P6SM OVC015
FM221500 01007KT P6SM BKN035
FM222100 03007KT P6SM SCT180



MET'MAP, your aeronautical weather chart ! - Copyright ORBIFLY December 2007 - Disclaimer

ORBIFLY MET'MAP TEAM :

Programming & Development : Alexandra Zaïnal
Concept & Development : Baudouin d'Aumeries
Co-Development & Prog : Marc-Olivier Méhu
Technical & hardware support : Manuel Goepfert

Contact : metmap@orbifly.com




SOURCES & CREDITS :

   NOAA       Earth
Advisory